This is the latest recevied weather packets stored in our database for station/object DH7LK-5. If no packets are shown the sender has not sent any weather packets the latest 10 day(s).
| Time | Temp. | Humidity | Pressure | Rain* | Wind** | Luminosity | Snow |
|---|---|---|---|---|---|---|---|
| 1777080888 | 8.33° C | 91% | - | 0 mm | - | - | - |
| 1777078962 | 8.33° C | 93% | - | 0 mm | - | - | - |
| 1777077154 | 8.33° C | 93% | - | 0 mm | - | - | - |
| 1777075353 | 8.33° C | 93% | - | 0 mm | - | - | - |
| 1777073541 | 8.33° C | 93% | - | 0 mm | - | - | - |
| 1777071740 | 8.33° C | 92% | - | 0 mm | - | - | - |
| 1777069592 | 8.89° C | 92% | - | 0 mm | - | - | - |
| 1777067474 | 9.44° C | 90% | - | 0 mm | - | - | - |
| 1777065672 | 9.44° C | 88% | - | 0 mm | - | - | - |
| 1777063453 | 10° C | 85% | - | 0 mm | - | - | - |
| 1777061581 | 11.11° C | 83% | - | 0 mm | - | - | - |
| 1777059763 | 11.67° C | 80% | - | 0 mm | - | - | - |
| 1777057780 | 11.67° C | 79% | - | 0 mm | - | - | - |
| 1777055055 | 12.78° C | 78% | - | 0 mm | - | - | - |
| 1777052735 | 14.44° C | 73% | - | 0 mm | - | - | - |
| 1777050934 | 15.56° C | 67% | - | 0 mm | - | - | - |
| 1777049121 | 15.56° C | 66% | - | 0 mm | - | - | - |
| 1777046402 | 16.67° C | 63% | - | 0 mm | - | - | - |
| 1777042807 | 16.11° C | 65% | - | 0 mm | - | - | - |
| 1777039653 | 16.11° C | 64% | - | 0 mm | - | - | - |
| 1777035861 | 14.44° C | 69% | - | 0 mm | - | - | - |
| 1777031741 | 13.33° C | 72% | - | 0 mm | - | - | - |
| 1777029938 | 12.22° C | 74% | - | 0 mm | - | - | - |
| 1777028071 | 11.67° C | 78% | - | 0 mm | - | - | - |
| 1777026213 | 11.11° C | 80% | - | 0 mm | - | - | - |
* Rain since midnight (hover to see other rain measurements)
** Current wind speed in m/s (hover to see current wind gust speed)